Time;durP1;ratioP1;P1;durP2;ratioP2;P2;SDS_P1;SDS_P2;PMS_P1;PMS_P2;Temp;Humidity;BMP_temperature;BMP_pressure;BME280_temperature;BME280_humidity;BME280_pressure;Samples;Min_cycle;Max_cycle;Signal;HPM_P1;HPM_P2
2021/12/04 00:01:53;;;;;;;2.33;1.65;;;;;;;15.56;41.24;92497.28;4932444;29;20035;-89
2021/12/04 00:04:22;;;;;;;1.70;1.38;;;;;;;15.51;41.08;92489.16;4948947;28;20037;-89
2021/12/04 00:06:49;;;;;;;1.60;1.50;;;;;;;15.54;41.06;92491.59;4933488;28;20075;-88
2021/12/04 00:09:15;;;;;;;1.70;1.50;;;;;;;15.53;41.12;92484.66;4948407;28;20040;-88
2021/12/04 00:11:50;;;;;;;1.40;1.30;;;;;;;15.61;41.03;92471.19;4952109;28;20058;-89
2021/12/04 00:14:16;;;;;;;2.80;1.70;;;;;;;15.55;41.01;92479.44;4942029;28;20090;-88
2021/12/04 00:16:41;;;;;;;1.98;1.38;;;;;;;15.57;40.96;92471.53;4940444;28;20052;-88
2021/12/04 00:19:07;;;;;;;2.25;1.73;;;;;;;15.52;41.07;92458.66;4948460;28;20098;-88
2021/12/04 00:21:32;;;;;;;1.95;1.58;;;;;;;15.58;41.06;92461.34;4951638;28;20035;-88
2021/12/04 00:23:57;;;;;;;1.63;1.20;;;;;;;15.60;40.70;92454.13;4936529;28;20515;-88
2021/12/04 00:26:23;;;;;;;1.90;1.30;;;;;;;15.59;40.68;92444.47;4954973;28;20045;-88
2021/12/04 00:28:48;;;;;;;2.00;1.80;;;;;;;15.55;40.97;92446.00;4939889;28;20046;-89
2021/12/04 00:31:14;;;;;;;2.20;1.67;;;;;;;15.58;40.87;92439.56;4938902;28;20042;-88
2021/12/04 00:33:43;;;;;;;1.40;1.20;;;;;;;15.54;40.95;92437.09;4939590;28;20520;-89
2021/12/04 00:36:13;;;;;;;1.75;1.23;;;;;;;15.58;40.77;92436.84;4939904;28;20043;-89
2021/12/04 00:49:35;;;;;;;2.28;1.60;;;;;;;15.49;41.21;92415.38;4960862;28;20072;-88
2021/12/04 00:52:00;;;;;;;2.58;1.75;;;;;;;15.51;41.20;92424.50;4938862;28;20035;-88
2021/12/04 00:54:26;;;;;;;1.73;1.50;;;;;;;15.54;40.88;92420.03;4939383;28;20271;-88
2021/12/04 00:56:52;;;;;;;1.33;1.23;;;;;;;15.54;41.01;92418.03;4939242;28;20069;-89
2021/12/04 00:59:17;;;;;;;1.95;1.45;;;;;;;15.55;41.07;92400.44;4954553;28;20054;-89
2021/12/04 01:01:43;;;;;;;2.65;1.58;;;;;;;15.60;40.74;92407.06;4958983;28;20034;-89
2021/12/04 01:04:09;;;;;;;2.05;1.40;;;;;;;15.55;40.92;92394.25;4957559;28;20034;-88
2021/12/04 01:06:35;;;;;;;2.15;1.50;;;;;;;15.49;41.05;92401.75;4958305;28;20358;-89
2021/12/04 01:09:00;;;;;;;1.63;1.50;;;;;;;15.50;41.31;92395.81;4958360;28;20445;-89
2021/12/04 01:11:26;;;;;;;2.38;1.83;;;;;;;15.55;40.90;92395.00;4964321;28;20035;-88
2021/12/04 01:13:51;;;;;;;2.50;1.60;;;;;;;15.56;40.88;92393.03;4938529;28;20332;-88
2021/12/04 01:16:17;;;;;;;1.55;1.35;;;;;;;15.53;40.89;92394.78;4946903;28;20489;-89
2021/12/04 01:18:43;;;;;;;2.53;1.63;;;;;;;15.56;40.84;92391.06;4958351;28;20485;-88
2021/12/04 01:21:09;;;;;;;2.35;1.63;;;;;;;15.57;40.91;92386.34;4957189;28;20034;-89
2021/12/04 01:23:35;;;;;;;1.92;1.40;;;;;;;15.53;40.80;92378.44;4989937;28;20042;-88
2021/12/04 01:26:00;;;;;;;1.50;1.30;;;;;;;15.55;40.65;92370.47;4965545;28;20042;-89
2021/12/04 01:28:26;;;;;;;2.08;1.40;;;;;;;15.56;40.74;92366.53;4938316;28;20039;-89
2021/12/04 01:30:51;;;;;;;1.85;1.63;;;;;;;15.51;40.95;92364.59;4954910;28;20457;-88
2021/12/04 01:33:17;;;;;;;1.40;1.30;;;;;;;15.54;40.80;92363.56;4937416;28;20585;-88
2021/12/04 01:35:43;;;;;;;2.67;1.65;;;;;;;15.55;40.67;92362.31;4937991;28;20042;-88
2021/12/04 01:38:10;;;;;;;2.38;1.52;;;;;;;15.55;40.85;92339.78;4937443;28;20043;-88
2021/12/04 01:40:35;;;;;;;2.63;1.60;;;;;;;15.53;41.00;92345.00;4938294;28;20087;-88
2021/12/04 01:43:01;;;;;;;1.23;1.00;;;;;;;15.55;41.00;92334.34;4951005;28;20065;-89
2021/12/04 01:45:27;;;;;;;1.40;1.30;;;;;;;15.55;40.84;92342.50;4969582;28;20035;-89
2021/12/04 01:47:58;;;;;;;1.75;1.50;;;;;;;15.57;40.90;92329.13;4953976;28;20027;-89
2021/12/04 01:50:23;;;;;;;;;;;;;;;15.55;40.87;92326.91;4953727;28;20121;-89
2021/12/04 01:52:48;;;;;;;1.30;1.20;;;;;;;15.55;40.81;92326.91;4970001;28;19954;-89
2021/12/04 01:55:14;;;;;;;1.85;1.33;;;;;;;15.54;40.60;92324.69;4953685;28;20350;-88
2021/12/04 01:57:39;;;;;;;1.35;1.23;;;;;;;15.53;40.96;92315.78;4954011;28;20043;-89
2021/12/04 02:00:07;;;;;;;2.17;1.52;;;;;;;15.55;40.64;92305.09;4971658;28;20043;-88
2021/12/04 02:02:32;;;;;;;2.15;1.65;;;;;;;15.57;40.57;92308.09;4955803;28;20405;-89
2021/12/04 02:04:57;;;;;;;2.35;1.50;;;;;;;15.52;40.80;92299.97;4955941;28;20058;-88
2021/12/04 02:07:23;;;;;;;2.13;1.55;;;;;;;15.50;40.83;92307.91;4969469;28;20094;-89
2021/12/04 02:09:48;;;;;;;1.95;1.65;;;;;;;15.54;40.21;92302.91;4970918;28;20357;-88
2021/12/04 02:12:14;;;;;;;1.73;1.38;;;;;;;15.50;40.79;92297.03;4954169;28;20398;-89
2021/12/04 02:14:41;;;;;;;1.88;1.60;;;;;;;15.50;40.81;92289.59;4950213;28;20046;-89
2021/12/04 02:17:07;;;;;;;1.92;1.42;;;;;;;15.55;40.78;92280.59;4969981;28;20038;-88
2021/12/04 02:19:32;;;;;;;3.05;1.88;;;;;;;15.51;40.67;92269.28;4955251;28;20034;-89
2021/12/04 02:21:58;;;;;;;1.77;1.20;;;;;;;15.50;41.29;92258.88;4954802;28;20390;-88
2021/12/04 02:24:23;;;;;;;1.83;1.50;;;;;;;15.50;40.59;92251.47;4955233;28;20034;-88
2021/12/04 02:26:49;;;;;;;1.50;1.13;;;;;;;15.53;40.61;92252.41;4951309;28;20517;-88
2021/12/04 02:29:14;;;;;;;2.33;1.27;;;;;;;15.49;40.89;92247.25;4951495;28;20034;-89
2021/12/04 02:31:40;;;;;;;1.52;1.38;;;;;;;15.51;40.61;92242.03;4950159;28;20429;-88
2021/12/04 02:34:06;;;;;;;1.77;1.30;;;;;;;15.52;40.82;92231.88;4933803;28;20043;-88
2021/12/04 02:36:31;;;;;;;2.33;1.90;;;;;;;15.49;40.82;92230.91;4934485;29;20042;-88
2021/12/04 02:38:57;;;;;;;1.63;1.40;;;;;;;15.54;40.77;92219.19;4943682;28;20043;-91
2021/12/04 02:41:22;;;;;;;1.88;1.40;;;;;;;15.52;40.66;92213.53;4936793;28;20049;-88
2021/12/04 02:43:48;;;;;;;1.70;1.38;;;;;;;15.56;40.69;92219.44;4936573;28;20039;-88
2021/12/04 02:46:14;;;;;;;2.05;1.30;;;;;;;15.58;40.59;92213.47;4949954;28;20148;-88
2021/12/04 02:48:41;;;;;;;1.40;1.30;;;;;;;15.53;40.71;92211.56;4944816;28;20035;-88
2021/12/04 02:51:07;;;;;;;1.75;1.55;;;;;;;15.53;40.88;92206.84;4936425;28;20046;-88
2021/12/04 02:53:33;;;;;;;1.95;1.70;;;;;;;15.49;40.83;92202.94;4969633;28;20371;-88
2021/12/04 02:55:58;;;;;;;1.75;1.50;;;;;;;15.49;40.80;92195.50;4953217;28;20149;-90
2021/12/04 02:58:24;;;;;;;1.42;1.30;;;;;;;15.50;40.75;92196.97;4968157;28;20035;-88
2021/12/04 03:00:50;;;;;;;1.98;1.33;;;;;;;15.51;40.81;92190.28;4969120;28;20565;-91
2021/12/04 03:03:17;;;;;;;1.60;1.30;;;;;;;15.52;40.45;92180.84;4951654;28;20039;-88
2021/12/04 03:05:47;;;;;;;1.23;1.13;;;;;;;15.55;40.77;92176.38;4953531;28;20132;-92
2021/12/04 03:08:12;;;;;;;1.95;1.52;;;;;;;15.52;40.81;92180.84;4953212;28;20497;-88
2021/12/04 03:10:37;;;;;;;1.35;1.20;;;;;;;15.49;40.89;92181.91;4936928;28;20053;-87
2021/12/04 03:13:07;;;;;;;1.92;1.50;;;;;;;15.55;40.48;92168.19;4936238;28;20066;-88
2021/12/04 03:15:32;;;;;;;1.48;1.30;;;;;;;15.50;40.60;92175.19;4952959;28;20138;-89
2021/12/04 03:17:58;;;;;;;1.90;1.60;;;;;;;15.55;40.53;92173.63;4936890;28;20043;-88
2021/12/04 03:20:24;;;;;;;1.83;1.45;;;;;;;15.50;40.76;92169.00;4968732;28;20490;-89
2021/12/04 03:22:57;;;;;;;1.30;0.95;;;;;;;15.53;40.42;92152.38;4936309;28;20038;-89
2021/12/04 03:25:23;;;;;;;1.52;1.05;;;;;;;15.47;40.72;92153.72;4952633;28;20062;-92
2021/12/04 03:27:50;;;;;;;2.25;1.42;;;;;;;15.50;40.71;92160.84;4952340;28;20066;-87
2021/12/04 03:30:29;;;;;;;1.48;1.20;;;;;;;15.49;40.78;92157.38;4952957;28;20046;-88
2021/12/04 03:41:02;;;;;;;1.60;1.30;;;;;;;15.52;40.86;92134.56;4955047;28;20078;-88
2021/12/04 03:43:29;;;;;;;1.55;1.30;;;;;;;15.52;40.47;92134.56;4960602;28;20525;-89
2021/12/04 03:46:02;;;;;;;1.65;1.25;;;;;;;15.51;40.70;92114.03;4936148;28;20406;-88
2021/12/04 03:50:54;;;;;;;1.35;1.25;;;;;;;15.47;40.68;92110.88;4968054;28;20062;-88
2021/12/04 03:53:19;;;;;;;1.48;1.23;;;;;;;15.46;40.50;92114.84;4951972;28;20105;-88
2021/12/04 03:55:45;;;;;;;1.50;1.17;;;;;;;15.47;40.70;92118.31;4934816;29;20040;-88
2021/12/04 03:58:10;;;;;;;1.58;1.13;;;;;;;15.48;40.55;92117.78;4936734;28;20413;-88
2021/12/04 04:00:37;;;;;;;1.25;1.13;;;;;;;15.50;40.67;92130.88;4952656;28;20035;-88
2021/12/04 04:03:02;;;;;;;1.50;1.33;;;;;;;15.52;40.08;92112.78;4958349;28;20038;-88
2021/12/04 04:05:27;;;;;;;1.38;1.27;;;;;;;15.48;40.51;92112.34;4955973;28;20043;-89
2021/12/04 04:07:53;;;;;;;2.03;1.77;;;;;;;15.46;40.62;92123.03;4940118;28;20035;-88
2021/12/04 04:10:20;;;;;;;0.98;0.88;;;;;;;15.47;40.54;92112.88;4939957;28;20035;-89
2021/12/04 04:12:46;;;;;;;1.70;1.27;;;;;;;15.47;40.69;92118.31;4936684;29;20115;-88
2021/12/04 04:15:11;;;;;;;1.83;1.35;;;;;;;15.49;40.58;92107.63;4975333;28;20051;-89
2021/12/04 04:17:42;;;;;;;1.48;1.38;;;;;;;15.50;40.32;92101.66;4940196;28;20070;-88
2021/12/04 04:20:11;;;;;;;1.38;1.20;;;;;;;15.47;40.86;92108.16;4941143;28;20039;-89
2021/12/04 04:22:36;;;;;;;1.50;1.20;;;;;;;15.44;40.98;92104.47;4940400;28;20039;-88
2021/12/04 04:25:02;;;;;;;1.17;1.05;;;;;;;15.47;40.51;92102.72;4955808;28;20041;-89
2021/12/04 04:27:27;;;;;;;1.33;1.05;;;;;;;15.46;40.44;92103.97;4946806;28;20457;-88
2021/12/04 04:29:53;;;;;;;1.55;1.27;;;;;;;15.46;40.69;92098.50;4939715;28;20504;-88
2021/12/04 04:32:18;;;;;;;1.55;1.20;;;;;;;15.49;40.67;92092.03;4939156;28;20039;-89
2021/12/04 04:34:50;;;;;;;1.73;1.38;;;;;;;15.48;40.45;92098.00;4971871;28;20047;-88
2021/12/04 04:40:27;;;;;;;1.45;1.20;;;;;;;15.46;40.73;92084.16;4952140;28;20135;-89
2021/12/04 05:12:25;;;;;;;;;;;;;;;;;;;;;
2021/12/04 05:14:54;;;;;;;1.20;1.10;;;;;;;15.43;40.53;92058.72;4952036;28;20035;-88
2021/12/04 05:17:40;;;;;;;1.58;1.13;;;;;;;15.51;40.12;92050.66;4935981;28;20346;-89
2021/12/04 05:20:06;;;;;;;1.35;1.25;;;;;;;15.43;40.57;92054.00;4964633;28;20061;-88
2021/12/04 05:22:32;;;;;;;1.67;1.13;;;;;;;15.44;40.87;92049.28;4967458;28;20383;-88
2021/12/04 05:24:57;;;;;;;1.33;0.90;;;;;;;15.46;40.33;92043.31;4967462;28;20113;-88
2021/12/04 05:27:23;;;;;;;1.40;1.10;;;;;;;15.45;40.58;92045.31;4980947;28;20495;-88
2021/12/04 05:29:48;;;;;;;1.25;1.10;;;;;;;15.44;40.57;92041.13;4983536;28;20042;-90
2021/12/04 05:32:15;;;;;;;1.10;1.00;;;;;;;15.45;40.63;92031.69;4983649;28;20031;-91
2021/12/04 05:34:40;;;;;;;1.30;0.90;;;;;;;15.46;40.50;92019.53;4966969;28;20106;-90
2021/12/04 05:37:06;;;;;;;1.15;1.05;;;;;;;15.48;40.36;92019.03;4983062;28;20043;-88
2021/12/04 05:39:32;;;;;;;1.67;1.30;;;;;;;15.54;40.57;92025.81;4970158;28;20034;-88
2021/12/04 05:41:59;;;;;;;1.30;1.00;;;;;;;15.51;40.63;92031.59;4970453;28;20039;-89
2021/12/04 05:44:26;;;;;;;1.25;1.15;;;;;;;15.48;40.75;92030.66;4970545;28;20039;-89
2021/12/04 05:46:59;;;;;;;1.13;1.02;;;;;;;15.51;40.63;92026.88;4938629;28;20066;-88
2021/12/04 05:49:30;;;;;;;1.40;0.80;;;;;;;15.53;39.93;92034.53;4971854;28;20047;-89
2021/12/04 05:57:04;;;;;;;1.02;0.93;;;;;;;15.42;40.53;92032.72;4955034;28;20089;-88
2021/12/04 05:59:29;;;;;;;1.17;0.90;;;;;;;15.45;40.39;92034.41;4954552;28;20465;-88
2021/12/04 06:01:55;;;;;;;1.10;0.90;;;;;;;15.40;40.80;92030.53;4934889;29;20043;-88
2021/12/04 06:04:21;;;;;;;1.27;1.15;;;;;;;15.43;40.52;92028.75;4953368;28;20735;-88
2021/12/04 06:06:46;;;;;;;1.20;1.10;;;;;;;15.40;40.63;92027.06;4936924;28;20094;-90
2021/12/04 06:09:12;;;;;;;1.17;0.93;;;;;;;15.40;40.79;92027.06;4952302;28;20042;-88
2021/12/04 06:11:37;;;;;;;1.00;0.90;;;;;;;15.41;41.04;92026.56;4952378;28;20043;-88
2021/12/04 06:14:03;;;;;;;1.50;1.00;;;;;;;15.48;40.31;92022.47;4936363;28;20045;-88
2021/12/04 06:16:28;;;;;;;1.40;0.98;;;;;;;15.44;40.63;92020.06;4946680;28;20042;-89
2021/12/04 06:18:54;;;;;;;0.80;0.80;;;;;;;15.45;40.49;92015.34;4957076;28;20043;-89
2021/12/04 06:24:04;;;;;;;1.73;1.17;;;;;;;15.41;40.38;92012.94;4975798;28;20065;-89
2021/12/04 06:26:32;;;;;;;2.03;1.05;;;;;;;15.43;40.73;92015.13;4956282;28;20413;-88
2021/12/04 06:28:58;;;;;;;1.50;0.90;;;;;;;15.49;40.10;92009.59;4957777;28;20129;-89
2021/12/04 06:31:24;;;;;;;1.25;1.00;;;;;;;15.39;40.31;92004.56;4952605;28;20043;-88
2021/12/04 06:33:50;;;;;;;1.33;1.00;;;;;;;15.37;40.56;91996.19;4954355;28;20030;-89
2021/12/04 06:36:15;;;;;;;1.35;1.05;;;;;;;15.46;40.30;92000.47;4937188;28;20097;-88
2021/12/04 06:38:41;;;;;;;4.18;1.08;;;;;;;15.43;40.38;91991.38;4953417;28;20023;-90
2021/12/04 06:41:06;;;;;;;1.98;1.08;;;;;;;15.44;40.47;92001.00;4935802;28;20034;-88
2021/12/04 06:43:32;;;;;;;1.83;1.10;;;;;;;15.48;40.70;92000.69;4937625;28;20379;-90
2021/12/04 06:46:02;;;;;;;2.45;0.80;;;;;;;15.44;40.57;91990.09;4952972;28;20054;-91
2021/12/04 06:48:36;;;;;;;11.33;2.30;;;;;;;15.46;40.70;91994.28;4953219;28;20027;-89
2021/12/04 06:51:10;;;;;;;8.38;2.45;;;;;;;15.43;40.72;91982.47;4969271;28;20345;-88
2021/12/04 06:53:47;;;;;;;51.92;9.73;;;;;;;15.43;40.45;91982.47;4953554;28;20210;-88
2021/12/04 06:56:13;;;;;;;39.50;7.32;;;;;;;15.37;41.04;91968.94;4939705;28;20049;-89
2021/12/04 06:58:38;;;;;;;32.55;6.55;;;;;;;15.50;40.75;91978.38;4953419;28;20390;-88
2021/12/04 07:01:08;;;;;;;33.80;16.65;;;;;;;15.56;40.25;91957.97;4937137;28;20038;-90
2021/12/04 07:03:33;;;;;;;29.35;9.27;;;;;;;15.61;40.25;91967.28;4986683;28;20046;-88
2021/12/04 07:05:59;;;;;;;36.88;7.68;;;;;;;15.59;40.29;91967.09;4937414;28;20039;-89
2021/12/04 07:08:24;;;;;;;42.45;20.65;;;;;;;15.54;40.27;91957.75;4952815;28;20034;-90
2021/12/04 07:10:50;;;;;;;33.08;10.20;;;;;;;15.53;39.99;91953.56;4968463;28;20034;-88
2021/12/04 07:13:15;;;;;;;29.25;9.55;;;;;;;15.48;40.69;91948.22;4960500;28;20030;-88
2021/12/04 07:15:43;;;;;;;71.82;13.52;;;;;;;15.52;40.07;91943.19;4953752;28;20077;-88
2021/12/04 07:18:09;;;;;;;143.15;25.80;;;;;;;15.54;40.21;91937.94;4953045;28;20043;-87
2021/12/04 07:20:34;;;;;;;74.78;16.70;;;;;;;15.51;40.42;91917.94;4952669;28;20486;-90
2021/12/04 07:22:59;;;;;;;68.38;16.50;;;;;;;15.55;40.35;91921.06;4965897;28;20255;-87
2021/12/04 07:25:25;;;;;;;83.90;16.35;;;;;;;15.49;41.49;91922.44;4951648;28;20026;-87
2021/12/04 07:27:51;;;;;;;89.93;16.55;;;;;;;15.54;40.17;91916.88;4966717;28;20145;-87
2021/12/04 07:30:17;;;;;;;53.38;14.35;;;;;;;15.53;39.96;91922.84;4935546;28;20042;-87
2021/12/04 07:32:43;;;;;;;49.80;13.05;;;;;;;15.52;39.98;91935.00;4968360;28;20093;-86
2021/12/04 07:35:09;;;;;;;51.30;13.63;;;;;;;15.41;40.20;91941.41;4967961;28;20031;-86
2021/12/04 07:37:34;;;;;;;55.45;13.40;;;;;;;15.42;40.64;91942.88;4952552;28;20064;-87
2021/12/04 07:39:59;;;;;;;46.03;13.45;;;;;;;15.47;40.52;91952.19;4951524;28;20776;-87
2021/12/04 07:42:25;;;;;;;52.90;12.50;;;;;;;15.46;40.44;91956.91;4952009;28;20035;-87
2021/12/04 07:44:50;;;;;;;47.28;11.63;;;;;;;15.45;40.31;91955.44;4936268;28;20046;-86
2021/12/04 07:47:15;;;;;;;57.28;12.10;;;;;;;15.47;40.35;91954.91;4951315;28;20426;-87
2021/12/04 07:49:41;;;;;;;55.83;12.43;;;;;;;15.49;40.74;91947.69;4968430;28;20050;-87
2021/12/04 07:52:07;;;;;;;37.45;11.35;;;;;;;15.44;40.43;91945.81;4951393;28;20569;-87
2021/12/04 07:54:32;;;;;;;53.30;11.95;;;;;;;15.46;40.24;91942.56;4968231;28;20029;-88
2021/12/04 07:56:58;;;;;;;45.05;10.63;;;;;;;15.46;40.48;91935.13;4968455;28;20035;-86
2021/12/04 07:59:24;;;;;;;33.05;9.77;;;;;;;15.47;40.31;91936.59;4930759;28;20462;-86
2021/12/04 08:01:50;;;;;;;40.22;10.07;;;;;;;15.44;40.66;91927.47;4936633;28;20039;-87
2021/12/04 08:04:15;;;;;;;37.33;9.77;;;;;;;15.49;40.36;91933.34;4962761;28;20078;-89
2021/12/04 08:06:40;;;;;;;26.70;9.55;;;;;;;15.49;40.18;91925.91;4931812;28;20452;-87
2021/12/04 08:09:06;;;;;;;38.22;10.77;;;;;;;15.53;40.00;91920.88;4930733;28;20046;-87
2021/12/04 08:11:31;;;;;;;33.47;9.23;;;;;;;15.55;40.34;91917.63;4947358;28;20039;-87
2021/12/04 08:13:57;;;;;;;29.55;9.65;;;;;;;15.47;40.46;91914.81;4933524;28;20040;-86
2021/12/04 08:16:24;;;;;;;37.50;9.57;;;;;;;15.49;40.28;91914.28;4945658;28;20050;-87
2021/12/04 08:18:52;;;;;;;32.60;9.15;;;;;;;15.46;40.64;91918.78;4946648;28;20517;-88
2021/12/04 08:21:19;;;;;;;29.27;9.57;;;;;;;15.43;40.54;91906.94;4946134;28;20039;-87
2021/12/04 08:23:44;;;;;;;32.28;8.32;;;;;;;15.43;40.36;91901.50;4931451;28;20069;-87
2021/12/04 08:26:09;;;;;;;31.38;8.20;;;;;;;15.41;39.76;91906.75;4946730;28;20043;-86
2021/12/04 08:28:35;;;;;;;33.72;6.10;;;;;;;15.26;35.28;91909.31;4947061;28;20040;-86
2021/12/04 08:31:00;;;;;;;12.80;3.97;;;;;;;15.22;32.87;91910.88;4943385;28;20046;-86
2021/12/04 08:33:26;;;;;;;11.65;3.08;;;;;;;14.99;31.47;91903.16;4932039;28;20098;-87
2021/12/04 08:35:51;;;;;;;13.07;3.20;;;;;;;14.94;30.92;91904.00;4932694;28;20039;-87
2021/12/04 08:38:17;;;;;;;5.10;2.95;;;;;;;14.89;30.40;91901.41;4916947;28;20047;-87
2021/12/04 08:40:42;;;;;;;5.75;2.60;;;;;;;14.79;29.88;91908.50;4968443;28;20053;-87
2021/12/04 08:43:08;;;;;;;5.32;2.22;;;;;;;14.67;30.07;91906.00;4969677;28;20522;-86
2021/12/04 08:45:33;;;;;;;2.38;1.85;;;;;;;14.65;29.86;91905.78;4954926;28;20144;-86
2021/12/04 08:47:59;;;;;;;2.15;1.90;;;;;;;14.59;29.58;91899.72;4970836;28;20050;-86
2021/12/04 08:50:26;;;;;;;2.70;2.08;;;;;;;14.47;29.73;91895.75;4954675;28;20043;-87
2021/12/04 08:52:52;;;;;;;3.85;2.30;;;;;;;14.50;29.83;91896.69;4954638;28;20023;-87
2021/12/04 08:55:18;;;;;;;2.28;1.90;;;;;;;14.34;29.57;91893.69;4954505;28;20043;-86
2021/12/04 08:57:43;;;;;;;5.03;1.80;;;;;;;14.25;29.91;91896.09;4954773;28;20050;-86
2021/12/04 09:00:15;;;;;;;5.38;2.20;;;;;;;14.27;30.17;91894.34;4954970;28;20035;-86
2021/12/04 09:02:41;;;;;;;5.53;1.88;;;;;;;14.30;30.03;91882.41;4966707;28;20042;-87
2021/12/04 09:05:08;;;;;;;3.92;2.30;;;;;;;14.40;30.35;91888.94;4967599;28;20031;-88
2021/12/04 09:07:33;;;;;;;8.52;2.40;;;;;;;14.51;30.41;91884.53;4946345;28;20042;-87
2021/12/04 09:09:59;;;;;;;4.68;2.15;;;;;;;14.59;30.19;91886.13;4974172;28;20424;-87
2021/12/04 09:12:25;;;;;;;8.23;2.63;;;;;;;14.57;30.52;91890.59;4957488;28;20053;-91
2021/12/04 09:14:50;;;;;;;19.38;3.78;;;;;;;14.66;30.90;91890.22;4955036;28;20458;-87
2021/12/04 09:17:18;;;;;;;10.07;3.08;;;;;;;14.66;31.62;91885.50;4944830;28;20039;-87
2021/12/04 09:19:43;;;;;;;6.07;3.03;;;;;;;14.64;32.16;91892.72;4967592;28;20046;-87
2021/12/04 09:22:14;;;;;;;16.90;3.15;;;;;;;14.63;31.83;91886.53;4966813;28;20043;-87
2021/12/04 09:24:42;;;;;;;;;;;;;;;14.72;31.87;91871.81;4967368;28;20035;-87
2021/12/04 09:27:14;;;;;;;11.38;3.53;;;;;;;14.77;31.93;91878.38;4950818;28;20347;-87
2021/12/04 10:02:06;;;;;;;4.68;2.58;;;;;;;15.09;34.32;91841.59;4962437;28;20045;-87
2021/12/04 10:34:32;;;;;;;7.90;2.08;;;;;;;15.15;34.77;91789.78;4988348;28;20393;-87
2021/12/04 10:37:08;;;;;;;5.93;2.50;;;;;;;15.13;34.92;91777.97;4989191;28;20065;-88
2021/12/04 10:39:34;;;;;;;5.00;2.22;;;;;;;15.19;34.84;91782.00;4953122;28;20478;-87
2021/12/04 10:42:03;;;;;;;5.32;2.42;;;;;;;15.13;35.00;91789.56;4936805;28;20030;-87
2021/12/04 10:44:28;;;;;;;4.25;2.25;;;;;;;15.13;34.82;91777.97;4969189;28;20118;-88
2021/12/04 10:46:59;;;;;;;5.55;2.13;;;;;;;15.15;34.77;91765.28;4968826;28;20049;-86
2021/12/04 10:49:37;;;;;;;;;;;;;;;15.19;34.98;91768.38;4936902;28;20043;-88
2021/12/04 10:52:04;;;;;;;5.00;2.40;;;;;;;15.18;35.05;91771.63;4953527;28;19966;-87
2021/12/04 10:54:38;;;;;;;3.83;2.13;;;;;;;15.18;35.27;91761.47;4952967;28;20050;-87
2021/12/04 11:00:09;;;;;;;3.97;2.22;;;;;;;15.24;35.40;91756.66;4955618;28;20066;-87
2021/12/04 11:02:40;;;;;;;5.28;2.13;;;;;;;15.18;35.38;91758.75;4954085;28;20101;-91
2021/12/04 11:18:38;;;;;;;2.88;1.77;;;;;;;15.21;35.37;91749.53;4955804;28;20099;-87
2021/12/04 11:19:28;;;;;;;4.80;2.00;;;;;;;15.23;35.66;91741.59;4968596;28;20440;-87
2021/12/04 11:22:17;;;;;;;4.55;1.77;;;;;;;15.20;35.44;91739.19;4948835;28;20050;-87
2021/12/04 11:25:09;;;;;;;7.68;1.90;;;;;;;15.20;35.53;91742.63;4962812;28;20050;-87
2021/12/04 11:43:07;;;;;;;4.07;1.80;;;;;;;15.22;35.72;91725.78;4967740;28;20050;-87
2021/12/04 11:45:46;;;;;;;2.53;1.60;;;;;;;15.28;35.81;91726.38;4935994;28;20058;-87
2021/12/04 11:48:11;;;;;;;2.75;1.40;;;;;;;15.19;35.61;91729.56;4961662;28;20035;-87
2021/12/04 11:50:42;;;;;;;2.47;1.50;;;;;;;15.17;36.02;91718.47;4952216;28;20525;-87
2021/12/04 11:53:16;;;;;;;6.20;1.90;;;;;;;15.24;36.02;91720.53;4968243;28;20073;-88
2021/12/04 11:55:44;;;;;;;6.20;1.58;;;;;;;15.22;35.93;91717.63;4967665;28;20483;-87
2021/12/04 11:58:23;;;;;;;2.53;1.75;;;;;;;15.20;36.11;91718.13;4952416;28;20058;-86
2021/12/04 12:00:50;;;;;;;2.15;1.40;;;;;;;15.22;36.07;91706.72;4969325;28;20166;-86
2021/12/04 12:03:20;;;;;;;2.78;1.52;;;;;;;15.21;36.18;91708.72;4967980;28;20031;-87
2021/12/04 12:05:48;;;;;;;1.98;1.40;;;;;;;15.26;36.29;91713.31;4955889;28;20628;-89
2021/12/04 12:08:37;;;;;;;2.47;1.60;;;;;;;15.24;36.30;91710.38;4951707;28;20041;-87
2021/12/04 12:11:09;;;;;;;3.58;1.40;;;;;;;15.26;36.09;91709.84;4951145;28;20513;-88
2021/12/04 12:13:35;;;;;;;3.60;1.67;;;;;;;15.23;36.37;91711.63;4936618;28;20042;-87
2021/12/04 12:16:24;;;;;;;4.60;1.88;;;;;;;15.32;37.02;91699.56;4976776;28;20034;-86
2021/12/04 12:18:53;;;;;;;7.03;1.92;;;;;;;15.26;36.56;91698.97;4969949;28;20053;-93
2021/12/04 12:21:23;;;;;;;1.35;1.20;;;;;;;15.27;36.35;91698.44;4972556;28;20054;-86
2021/12/04 12:27:01;;;;;;;2.00;1.20;;;;;;;15.25;36.40;91689.34;4971922;28;20723;-86
2021/12/04 12:32:43;;;;;;;1.98;1.30;;;;;;;15.30;36.35;91677.59;4971801;28;20093;-86
2021/12/04 12:37:49;;;;;;;2.72;1.40;;;;;;;15.26;36.49;91682.63;4972064;28;20489;-87
2021/12/04 12:40:15;;;;;;;3.53;1.50;;;;;;;15.29;36.43;91685.03;4939372;28;20628;-88
2021/12/04 12:42:41;;;;;;;2.22;1.48;;;;;;;15.29;36.42;91674.13;4938734;28;20469;-87
2021/12/04 12:45:16;;;;;;;2.40;1.30;;;;;;;15.27;36.45;91671.22;4954512;28;20126;-86
2021/12/04 12:47:52;;;;;;;21.45;15.60;;;;;;;15.31;37.08;91660.72;4939054;28;20039;-87
2021/12/04 12:50:31;;;;;;;3.90;1.60;;;;;;;15.33;36.95;91676.53;4971890;28;20430;-87
2021/12/04 12:53:06;;;;;;;1.65;1.20;;;;;;;15.28;36.57;91667.22;4971689;28;20054;-87
2021/12/04 12:55:34;;;;;;;1.98;1.40;;;;;;;15.33;36.87;91666.38;4970780;28;20046;-87
2021/12/04 12:58:12;;;;;;;3.35;2.03;;;;;;;15.32;36.65;91662.19;4955610;28;20042;-87
2021/12/04 13:12:07;;;;;;;3.50;2.40;;;;;;;15.42;36.82;91662.41;4937961;28;20047;-86
2021/12/04 13:14:41;;;;;;;6.57;2.92;;;;;;;15.36;37.32;91659.84;4946116;28;20062;-86
2021/12/04 13:17:16;;;;;;;3.42;2.28;;;;;;;15.34;36.88;91658.94;4972690;28;20108;-86
2021/12/04 13:19:45;;;;;;;3.40;2.55;;;;;;;15.41;37.10;91660.97;4953552;28;20043;-89
2021/12/04 13:22:16;;;;;;;61.15;38.30;;;;;;;15.46;37.10;91646.47;4952988;28;20090;-87
2021/12/04 13:24:42;;;;;;;4.25;3.03;;;;;;;15.48;37.29;91656.84;4969538;28;20053;-88
2021/12/04 13:29:39;;;;;;;14.40;3.88;;;;;;;15.50;37.18;91652.31;4985358;28;20210;-88
2021/12/04 13:32:05;;;;;;;3.90;3.20;;;;;;;15.48;36.89;91643.22;4984026;28;20126;-88
2021/12/04 13:34:30;;;;;;;5.53;3.50;;;;;;;15.48;36.86;91645.94;4937316;28;20170;-86
2021/12/04 13:36:56;;;;;;;4.45;3.08;;;;;;;15.51;36.80;91648.34;4985578;28;20097;-89
2021/12/04 13:39:21;;;;;;;6.93;3.38;;;;;;;15.55;37.06;91643.28;4968256;28;25943;-89
2021/12/04 13:41:48;;;;;;;3.45;2.90;;;;;;;15.57;37.21;91642.78;4936868;28;20081;-88
2021/12/04 13:44:14;;;;;;;6.45;4.13;;;;;;;15.45;37.41;91639.56;4982102;28;20471;-90
2021/12/04 13:46:48;;;;;;;7.03;4.55;;;;;;;15.46;37.09;91646.47;4971348;28;20577;-89
2021/12/04 13:49:15;;;;;;;7.13;5.50;;;;;;;15.53;36.91;91629.47;4973652;28;20066;-90
2021/12/04 13:51:40;;;;;;;3.85;3.00;;;;;;;15.53;36.90;91631.47;4938421;28;20035;-87
2021/12/04 13:54:06;;;;;;;5.13;3.13;;;;;;;15.52;37.34;91627.28;4970280;28;20510;-87
2021/12/04 13:56:32;;;;;;;4.68;3.78;;;;;;;15.56;37.18;91624.97;4969671;28;20077;-87
2021/12/04 13:59:00;;;;;;;5.47;3.78;;;;;;;15.56;37.10;91630.44;4954251;28;20453;-87
2021/12/04 14:01:26;;;;;;;4.18;3.63;;;;;;;15.52;37.23;91628.00;4953531;28;20525;-87
2021/12/04 14:03:56;;;;;;;8.38;4.40;;;;;;;15.53;37.21;91631.47;4970311;28;20564;-86
2021/12/04 14:06:21;;;;;;;64.90;49.05;;;;;;;15.52;37.12;91625.28;4953283;28;20031;-89
2021/12/04 14:08:57;;;;;;;7.10;4.28;;;;;;;15.54;37.52;91636.38;4992485;28;20041;-89
2021/12/04 14:11:36;;;;;;;4.97;4.35;;;;;;;15.56;37.63;91635.88;4988675;28;20098;-88
2021/12/04 14:14:10;;;;;;;10.48;4.70;;;;;;;15.61;37.46;91627.53;4954139;28;20409;-87
2021/12/04 14:16:35;;;;;;;9.00;5.10;;;;;;;15.64;37.46;91628.47;4979451;28;20034;-89
2021/12/04 14:19:13;;;;;;;80.00;51.92;;;;;;;15.65;37.24;91622.47;4969871;28;20280;-87
2021/12/04 14:21:39;;;;;;;8.35;5.25;;;;;;;15.63;37.44;91624.28;4952726;28;20129;-86
2021/12/04 14:24:04;;;;;;;8.43;4.50;;;;;;;15.59;37.64;91621.19;4969633;28;20437;-86
2021/12/04 14:26:29;;;;;;;8.77;4.47;;;;;;;15.56;37.04;91622.25;4953215;28;20049;-87
2021/12/04 14:28:55;;;;;;;7.85;4.82;;;;;;;15.48;37.48;91621.44;4953607;28;20042;-87
2021/12/04 14:31:21;;;;;;;7.68;5.30;;;;;;;15.49;37.12;91618.19;4968358;28;20039;-88
2021/12/04 14:33:47;;;;;;;7.10;4.95;;;;;;;15.48;37.19;91621.44;4969428;28;20393;-87